createdAt,value
2022-09-04T00:01:16.180Z,15.70
2022-09-04T00:04:00.090Z,16.80
2022-09-04T00:06:42.674Z,15.60
2022-09-04T00:09:24.273Z,15.70
2022-09-04T00:12:09.267Z,15.60
2022-09-04T00:14:52.235Z,13.60
2022-09-04T00:17:36.067Z,17.00
2022-09-04T00:20:24.564Z,18.30
2022-09-04T00:23:07.500Z,15.50
2022-09-04T00:25:52.191Z,15.50
2022-09-04T00:28:36.516Z,17.10
2022-09-04T00:31:26.615Z,18.30
2022-09-04T00:34:15.086Z,16.40
2022-09-04T00:36:55.145Z,16.70
2022-09-04T00:39:39.501Z,15.40
2022-09-04T00:43:08.285Z,15.50
2022-09-04T00:46:06.818Z,15.40
2022-09-04T00:49:24.255Z,15.40
2022-09-04T00:52:15.312Z,15.40
2022-09-04T00:55:11.372Z,15.50
2022-09-04T00:58:18.959Z,15.60
2022-09-04T01:00:58.820Z,15.60
2022-09-04T01:03:51.327Z,15.60
2022-09-04T01:06:46.004Z,15.50
2022-09-04T01:09:44.354Z,15.50
2022-09-04T01:12:38.021Z,15.50
2022-09-04T01:15:20.977Z,15.50
2022-09-04T01:18:05.225Z,15.50
2022-09-04T01:20:56.437Z,15.50
2022-09-04T01:24:07.524Z,15.50
2022-09-04T01:26:54.690Z,15.40
2022-09-04T01:29:50.563Z,15.50
2022-09-04T01:32:37.176Z,15.50
2022-09-04T01:35:24.735Z,16.80
2022-09-04T01:38:17.416Z,15.50
2022-09-04T01:41:00.283Z,17.30
2022-09-04T01:43:36.069Z,15.50
2022-09-04T01:46:39.110Z,15.50
2022-09-04T01:49:36.666Z,15.90
2022-09-04T01:52:29.294Z,15.30
2022-09-04T01:55:22.362Z,15.20
2022-09-04T01:58:14.430Z,15.30
2022-09-04T02:01:21.288Z,15.40
2022-09-04T02:04:13.649Z,15.30
2022-09-04T02:07:01.038Z,16.50
2022-09-04T02:09:56.718Z,16.50
2022-09-04T02:12:38.658Z,18.20
2022-09-04T02:15:23.813Z,15.40
2022-09-04T02:18:12.554Z,16.90
2022-09-04T02:21:04.438Z,17.70
2022-09-04T02:23:46.895Z,17.20
2022-09-04T02:26:29.768Z,15.30
2022-09-04T02:29:15.352Z,15.10
2022-09-04T02:31:59.995Z,17.00
2022-09-04T02:34:45.909Z,16.20
2022-09-04T02:37:28.410Z,18.20
2022-09-04T02:40:12.033Z,18.50
2022-09-04T02:43:07.667Z,17.80
2022-09-04T02:45:50.253Z,15.00
2022-09-04T02:48:43.109Z,15.00
2022-09-04T02:51:45.675Z,15.00
2022-09-04T02:54:38.528Z,15.10
2022-09-04T02:57:30.124Z,17.90
2022-09-04T03:00:11.700Z,15.10
2022-09-04T03:02:56.184Z,14.90
2022-09-04T03:05:35.413Z,16.00
2022-09-04T03:08:20.796Z,15.90
2022-09-04T03:11:01.656Z,17.80
2022-09-04T03:13:51.153Z,17.90
2022-09-04T03:16:33.660Z,14.70
2022-09-04T03:19:19.154Z,14.60
2022-09-04T03:22:03.556Z,14.70
2022-09-04T03:25:06.270Z,14.60
2022-09-04T03:27:43.158Z,15.90
2022-09-04T03:30:21.797Z,17.40
2022-09-04T03:33:07.833Z,14.50
2022-09-04T03:35:53.753Z,17.50
2022-09-04T03:38:42.542Z,17.70
2022-09-04T03:41:35.520Z,16.20
2022-09-04T03:44:24.064Z,15.50
2022-09-04T03:47:08.085Z,16.20
2022-09-04T03:49:59.668Z,14.10
2022-09-04T03:52:47.112Z,14.30
2022-09-04T03:55:41.462Z,14.10
2022-09-04T03:58:29.952Z,15.30
2022-09-04T04:01:24.704Z,14.00
2022-09-04T04:04:38.186Z,14.00
2022-09-04T04:07:28.789Z,14.40
2022-09-04T04:10:13.645Z,14.00
2022-09-04T04:13:23.384Z,15.10
2022-09-04T04:16:26.224Z,13.70
2022-09-04T04:19:27.105Z,16.40
2022-09-04T04:22:25.586Z,13.60
2022-09-04T04:25:28.081Z,13.60
2022-09-04T04:28:20.471Z,13.70
2022-09-04T04:31:06.664Z,13.70
2022-09-04T04:33:52.567Z,15.60
2022-09-04T04:36:37.374Z,15.20
2022-09-04T04:39:30.541Z,13.30
2022-09-04T04:42:21.109Z,15.10
2022-09-04T04:45:28.279Z,13.40
2022-09-04T04:49:00.191Z,11.30
2022-09-04T04:51:58.577Z,13.50
2022-09-04T04:54:52.820Z,13.50
2022-09-04T04:57:40.092Z,15.20
2022-09-04T05:00:23.985Z,14.40
2022-09-04T05:03:09.412Z,14.00
2022-09-04T05:05:58.450Z,14.00
2022-09-04T05:08:44.084Z,14.60
2022-09-04T05:11:34.780Z,13.90
2022-09-04T05:14:19.943Z,13.50
2022-09-04T05:17:05.805Z,13.20
2022-09-04T05:19:50.941Z,13.30
2022-09-04T05:22:40.165Z,13.30
2022-09-04T05:25:26.413Z,13.40
2022-09-04T05:28:14.854Z,13.50
2022-09-04T05:30:57.824Z,13.40
2022-09-04T05:33:40.051Z,15.10
2022-09-04T05:36:32.187Z,14.80
2022-09-04T05:39:17.068Z,16.10
2022-09-04T05:42:07.726Z,14.60
2022-09-04T05:44:54.167Z,16.00
2022-09-04T05:47:42.001Z,16.90
2022-09-04T05:50:38.745Z,16.40
2022-09-04T05:53:41.207Z,13.80
2022-09-04T05:57:07.295Z,13.90
2022-09-04T06:00:11.662Z,13.90
2022-09-04T06:03:32.824Z,14.00
2022-09-04T06:06:15.371Z,14.10
2022-09-04T06:09:20.029Z,14.10
2022-09-04T06:12:22.828Z,17.20
2022-09-04T06:15:17.571Z,14.30
2022-09-04T06:18:11.619Z,14.50
2022-09-04T06:21:42.471Z,17.20
2022-09-04T06:24:45.668Z,14.60
2022-09-04T06:27:53.724Z,16.60
2022-09-04T06:30:39.103Z,14.80
2022-09-04T06:33:44.952Z,15.00
2022-09-04T06:36:47.726Z,15.10
2022-09-04T06:39:57.463Z,15.30
2022-09-04T06:42:50.170Z,15.50
2022-09-04T06:45:38.063Z,15.60
2022-09-04T06:48:25.495Z,15.70
2022-09-04T06:51:11.812Z,17.30
2022-09-04T06:54:07.640Z,17.50
2022-09-04T06:57:07.146Z,16.50
2022-09-04T07:00:06.876Z,16.30
2022-09-04T07:03:10.695Z,17.80
2022-09-04T07:05:56.262Z,18.90
2022-09-04T07:08:49.092Z,16.50
2022-09-04T07:11:45.048Z,16.60
2022-09-04T07:14:47.630Z,16.70
2022-09-04T07:17:32.136Z,19.80
2022-09-04T07:20:19.548Z,18.90
2022-09-04T07:23:17.640Z,17.00
2022-09-04T07:26:05.533Z,17.20
2022-09-04T07:29:01.878Z,17.40
2022-09-04T07:31:45.652Z,20.20
2022-09-04T07:34:30.955Z,18.50
2022-09-04T07:37:17.802Z,19.40
2022-09-04T07:40:03.687Z,17.70
2022-09-04T07:42:51.088Z,19.10
2022-09-04T07:45:37.229Z,18.00
2022-09-04T07:48:22.518Z,19.30
2022-09-04T07:51:10.320Z,18.30
2022-09-04T07:54:22.982Z,20.90
2022-09-04T07:57:51.918Z,18.70
2022-09-04T08:00:29.126Z,18.70
2022-09-04T08:03:27.714Z,18.90
2022-09-04T08:06:19.685Z,18.80
2022-09-04T08:09:14.499Z,19.90
2022-09-04T08:12:29.166Z,20.10
2022-09-04T08:15:22.115Z,18.90
2022-09-04T08:18:21.763Z,19.00
2022-09-04T08:21:14.042Z,19.10
2022-09-04T08:24:50.128Z,19.70
2022-09-04T08:27:44.384Z,19.30
2022-09-04T08:30:23.405Z,19.60
2022-09-04T08:34:03.586Z,19.90
2022-09-04T08:36:50.281Z,20.00
2022-09-04T08:39:49.037Z,21.20
2022-09-04T08:43:06.857Z,22.20
2022-09-04T08:46:29.009Z,20.70
2022-09-04T08:50:00.975Z,20.90
2022-09-04T08:53:24.159Z,21.00
2022-09-04T08:56:32.423Z,21.10
2022-09-04T08:59:56.795Z,21.30
2022-09-04T09:03:17.585Z,21.10
2022-09-04T09:06:54.329Z,21.10
2022-09-04T09:10:15.659Z,21.40
2022-09-04T09:13:33.280Z,21.50
2022-09-04T09:16:26.055Z,21.60
2022-09-04T09:19:23.944Z,21.70
2022-09-04T09:22:12.500Z,21.70
2022-09-04T09:25:19.870Z,21.70
2022-09-04T09:28:56.390Z,21.80
2022-09-04T09:32:11.368Z,21.90
2022-09-04T09:35:59.284Z,21.80
2022-09-04T09:39:46.226Z,21.90
2022-09-04T09:43:11.684Z,21.70
2022-09-04T09:46:26.205Z,21.90
2022-09-04T09:49:38.884Z,22.10
2022-09-04T09:53:16.047Z,22.10
2022-09-04T09:56:41.211Z,22.30
2022-09-04T10:19:30.415Z,22.60
2022-09-04T10:22:52.206Z,22.60
2022-09-04T10:26:18.597Z,22.50
2022-09-04T10:29:34.557Z,22.70
2022-09-04T10:33:11.538Z,22.70
2022-09-04T10:36:04.281Z,22.80
2022-09-04T10:38:58.675Z,23.00
2022-09-04T10:41:53.348Z,22.90
2022-09-04T10:44:47.200Z,24.80
2022-09-04T10:48:07.475Z,23.10
2022-09-04T10:51:11.007Z,23.40
2022-09-04T10:54:12.041Z,23.70
2022-09-04T10:57:06.846Z,23.90
2022-09-04T11:00:02.630Z,26.00
2022-09-04T11:03:28.758Z,25.80
2022-09-04T11:06:47.639Z,24.40
2022-09-04T11:09:58.092Z,24.80
2022-09-04T11:13:48.122Z,25.00
2022-09-04T11:16:50.576Z,24.90
2022-09-04T11:20:02.687Z,27.00
2022-09-04T11:23:10.463Z,24.10
2022-09-04T11:26:26.512Z,24.40
2022-09-04T11:29:22.822Z,24.60
2022-09-04T11:32:28.229Z,24.80
2022-09-04T11:35:43.408Z,24.70
2022-09-04T11:38:59.741Z,24.80
2022-09-04T11:42:12.578Z,24.90
2022-09-04T11:45:17.806Z,25.10
2022-09-04T11:48:37.943Z,24.90
2022-09-04T11:51:50.908Z,25.10
2022-09-04T11:55:08.272Z,25.00
2022-09-04T11:58:15.311Z,26.40
2022-09-04T12:01:04.169Z,24.90
2022-09-04T12:04:24.620Z,25.10
2022-09-04T12:07:25.106Z,25.40
2022-09-04T12:10:24.320Z,25.70
2022-09-04T12:13:40.317Z,25.10
2022-09-04T12:16:56.021Z,24.60
2022-09-04T12:20:12.620Z,24.60
2022-09-04T12:23:30.133Z,25.20
2022-09-04T12:26:58.143Z,24.70
2022-09-04T12:30:01.164Z,24.80
2022-09-04T12:33:08.943Z,24.80
2022-09-04T12:36:23.232Z,24.90
2022-09-04T12:40:01.658Z,24.90
2022-09-04T12:42:50.064Z,24.70
2022-09-04T12:45:41.151Z,27.60
2022-09-04T12:48:36.263Z,26.50
2022-09-04T12:51:15.080Z,24.80
2022-09-04T12:54:20.609Z,24.00
2022-09-04T12:57:17.890Z,23.90
2022-09-04T13:00:12.640Z,23.90
2022-09-04T13:03:18.425Z,23.80
2022-09-04T13:06:11.324Z,24.50
2022-09-04T13:09:15.287Z,24.30
2022-09-04T13:12:06.108Z,25.40
2022-09-04T13:15:13.723Z,24.40
2022-09-04T13:18:04.496Z,24.90
2022-09-04T13:20:49.566Z,25.10
2022-09-04T13:24:00.143Z,27.80
2022-09-04T13:26:54.798Z,24.80
2022-09-04T13:29:44.178Z,24.80
2022-09-04T13:32:54.581Z,24.90
2022-09-04T13:35:57.612Z,26.10
2022-09-04T13:39:45.301Z,24.90
2022-09-04T13:43:05.811Z,24.90
2022-09-04T13:45:49.182Z,25.20
2022-09-04T13:48:44.875Z,25.10
2022-09-04T13:51:38.489Z,26.70
2022-09-04T13:57:33.735Z,25.60
2022-09-04T14:00:24.361Z,25.40
2022-09-04T14:03:04.584Z,26.60
2022-09-04T14:06:11.391Z,27.50
2022-09-04T14:09:04.903Z,26.50
2022-09-04T14:12:16.055Z,27.90
2022-09-04T14:15:32.391Z,26.10
2022-09-04T14:18:45.285Z,26.30
2022-09-04T14:25:17.812Z,26.40
2022-09-04T14:31:26.923Z,25.10
2022-09-04T14:37:24.685Z,25.40
2022-09-04T14:40:08.431Z,26.40
2022-09-04T14:42:52.149Z,27.10
2022-09-04T14:45:54.418Z,25.80
2022-09-04T14:48:51.479Z,26.50
2022-09-04T14:51:39.135Z,25.80
2022-09-04T14:54:27.184Z,25.90
2022-09-04T15:00:18.418Z,26.00
2022-09-04T15:03:09.748Z,25.90
2022-09-04T15:06:03.703Z,27.20
2022-09-04T15:08:45.035Z,26.00
2022-09-04T15:11:50.441Z,25.80
2022-09-04T15:14:35.327Z,25.40
2022-09-04T15:17:17.496Z,26.90
2022-09-04T15:20:01.265Z,26.30
2022-09-04T15:22:43.320Z,26.70
2022-09-04T15:25:59.265Z,25.50
2022-09-04T15:32:14.300Z,27.20
2022-09-04T15:35:09.366Z,27.30
2022-09-04T15:37:59.276Z,25.70
2022-09-04T15:41:05.909Z,27.00
2022-09-04T15:43:50.195Z,27.30
2022-09-04T15:46:56.954Z,26.30
2022-09-04T15:49:50.663Z,28.00
2022-09-04T15:52:40.806Z,28.10
2022-09-04T15:55:28.520Z,25.60
2022-09-04T15:58:12.140Z,25.60
2022-09-04T16:01:16.889Z,27.30
2022-09-04T16:04:02.179Z,25.30
2022-09-04T16:06:48.157Z,25.30
2022-09-04T16:09:29.537Z,25.70
2022-09-04T16:12:11.623Z,26.70
2022-09-04T16:14:50.394Z,25.10
2022-09-04T16:17:30.599Z,26.50
2022-09-04T16:20:33.456Z,27.40
2022-09-04T16:23:15.932Z,25.70
2022-09-04T16:25:56.896Z,25.70
2022-09-04T16:28:41.672Z,25.50
2022-09-04T16:31:26.132Z,27.50
2022-09-04T16:34:08.937Z,24.70
2022-09-04T16:36:48.400Z,24.60
2022-09-04T16:39:32.390Z,25.60
2022-09-04T16:42:21.902Z,24.60
2022-09-04T16:45:04.332Z,24.50
2022-09-04T16:47:47.554Z,26.10
2022-09-04T16:50:32.455Z,27.20
2022-09-04T16:53:14.558Z,24.30
2022-09-04T16:55:59.310Z,27.30
2022-09-04T16:58:46.253Z,24.10
2022-09-04T17:01:29.276Z,25.60
2022-09-04T17:04:43.334Z,24.40
2022-09-04T17:07:37.355Z,24.50
2022-09-04T17:10:36.494Z,23.80
2022-09-04T17:13:18.336Z,24.20
2022-09-04T17:16:04.126Z,23.50
2022-09-04T17:18:43.863Z,24.40
2022-09-04T17:25:32.703Z,23.60
2022-09-04T17:29:09.384Z,24.60
2022-09-04T17:29:12.275Z,23.10
2022-09-04T17:31:07.484Z,25.20
2022-09-04T17:40:13.743Z,24.70
2022-09-04T17:40:40.956Z,24.50
2022-09-04T17:40:53.466Z,22.80
2022-09-04T17:43:28.871Z,25.10
2022-09-04T17:46:26.770Z,25.40
2022-09-04T17:49:10.381Z,22.60
2022-09-04T17:51:52.354Z,23.20
2022-09-04T17:54:42.228Z,23.40
2022-09-04T17:57:53.124Z,24.60
2022-09-04T18:00:35.205Z,23.80
2022-09-04T18:03:26.926Z,22.70
2022-09-04T18:06:12.455Z,21.50
2022-09-04T18:08:58.089Z,21.40
2022-09-04T18:11:41.316Z,22.60
2022-09-04T18:14:33.013Z,23.50
2022-09-04T18:17:13.569Z,22.30
2022-09-04T18:19:52.450Z,21.60
2022-09-04T18:22:34.041Z,22.70
2022-09-04T18:25:16.577Z,23.10
2022-09-04T18:28:11.677Z,23.80
2022-09-04T18:37:09.342Z,21.40
2022-09-04T18:37:26.901Z,22.10
2022-09-04T18:37:44.541Z,23.20
2022-09-04T18:40:39.194Z,20.30
2022-09-04T18:50:33.996Z,20.00
2022-09-04T18:50:48.581Z,20.00
2022-09-04T18:52:59.487Z,19.80
2022-09-04T18:55:47.014Z,19.70
2022-09-04T18:59:00.359Z,21.20
2022-09-04T19:02:01.106Z,19.70
2022-09-04T19:07:47.575Z,19.60
2022-09-04T19:10:27.091Z,19.60
2022-09-04T19:13:09.151Z,19.40
2022-09-04T19:16:02.257Z,19.40
2022-09-04T19:18:52.921Z,19.40
2022-09-04T19:21:36.583Z,19.40
2022-09-04T19:24:28.684Z,19.30
2022-09-04T19:27:28.504Z,19.20
2022-09-04T19:30:18.923Z,21.50
2022-09-04T19:33:10.268Z,17.90
2022-09-04T19:35:54.653Z,19.10
2022-09-04T19:45:57.805Z,21.70
2022-09-04T19:46:00.059Z,18.80
2022-09-04T19:46:17.044Z,19.10
2022-09-04T19:48:19.399Z,20.10
2022-09-04T19:53:30.441Z,19.40
2022-09-04T19:54:06.358Z,21.80
2022-09-04T19:57:31.210Z,18.50
2022-09-04T19:59:51.208Z,20.20
2022-09-04T20:02:37.187Z,20.70
2022-09-04T20:05:23.950Z,19.50
2022-09-04T20:08:21.298Z,18.20
2022-09-04T20:11:02.274Z,21.10
2022-09-04T20:13:49.916Z,18.10
2022-09-04T20:16:31.679Z,21.10
2022-09-04T20:19:20.241Z,18.00
2022-09-04T20:22:08.379Z,19.10
2022-09-04T20:27:47.784Z,17.80
2022-09-04T20:30:31.621Z,21.10
2022-09-04T20:33:12.386Z,17.70
2022-09-04T20:35:54.380Z,21.00
2022-09-04T20:38:46.217Z,19.20
2022-09-04T20:41:28.299Z,19.10
2022-09-04T20:44:17.027Z,20.10
2022-09-04T20:52:45.033Z,17.50
2022-09-04T20:52:52.603Z,19.60
2022-09-04T20:53:09.607Z,18.90
2022-09-04T20:56:26.094Z,17.30
2022-09-04T21:03:11.196Z,17.30
2022-09-04T21:03:19.733Z,17.20
2022-09-04T21:06:06.717Z,16.70
2022-09-04T21:08:50.695Z,17.10
2022-09-04T21:11:40.803Z,17.10
2022-09-04T21:14:26.926Z,17.00
2022-09-04T21:17:35.088Z,17.00
2022-09-04T21:20:48.578Z,17.20
2022-09-04T21:24:24.956Z,13.80
2022-09-04T21:27:31.326Z,16.90
2022-09-04T21:30:10.604Z,16.80
2022-09-04T21:33:28.050Z,16.80
2022-09-04T21:36:26.272Z,16.60
2022-09-04T21:39:39.970Z,16.70
2022-09-04T21:42:46.383Z,16.60
2022-09-04T21:45:37.120Z,16.50
2022-09-04T21:48:46.356Z,17.30
2022-09-04T21:51:44.769Z,16.40
2022-09-04T21:58:21.279Z,16.40
2022-09-04T22:02:42.418Z,16.50
2022-09-04T22:02:45.896Z,16.40
2022-09-04T22:04:51.215Z,16.30
2022-09-04T22:11:08.830Z,16.10
2022-09-04T22:13:28.827Z,18.50
2022-09-04T22:14:03.187Z,16.20
2022-09-04T22:17:22.640Z,16.20
2022-09-04T22:20:21.145Z,16.20
2022-09-04T22:23:42.751Z,16.10
2022-09-04T22:27:00.291Z,16.00
2022-09-04T22:30:07.105Z,16.00
2022-09-04T22:33:45.578Z,16.00
2022-09-04T22:37:05.262Z,16.00
2022-09-04T22:40:16.803Z,15.90
2022-09-04T22:43:07.067Z,16.00
2022-09-04T22:46:54.797Z,16.00
2022-09-04T22:50:10.460Z,15.80
2022-09-04T22:53:05.904Z,15.70
2022-09-04T22:56:22.623Z,15.60
2022-09-04T22:59:27.918Z,15.70
2022-09-04T23:03:04.171Z,15.60
2022-09-04T23:08:03.015Z,15.60
2022-09-04T23:13:50.840Z,15.60
2022-09-04T23:13:57.903Z,15.60
2022-09-04T23:16:04.083Z,15.50
2022-09-04T23:22:56.632Z,15.50
2022-09-04T23:26:42.226Z,17.00
2022-09-04T23:26:45.515Z,15.50
2022-09-04T23:28:52.909Z,15.80
2022-09-04T23:32:06.813Z,15.00
2022-09-04T23:35:14.547Z,15.20
2022-09-04T23:38:17.073Z,15.40
2022-09-04T23:40:55.319Z,15.30
2022-09-04T23:44:09.292Z,15.30
2022-09-04T23:47:10.339Z,15.30
2022-09-04T23:50:12.724Z,15.10
2022-09-04T23:53:04.527Z,15.10
2022-09-04T23:56:02.988Z,15.10
2022-09-04T23:59:21.296Z,15.00
